Terminal Aerodrome Forecast
Issued by NWS Wilmington, OH

Current Version | Previous Version | Graphics & Text | Print | Product List | Glossary On
Versions: 1 2 3 4 5 6 7 8 9 10 11 12 13 14 15 16 17 18 19
000
FTUS41 KILN 200546
TAFDAY
TAF
KDAY 200546Z 2006/2106 15006KT P6SM BKN250
     FM201200 17006KT 6SM -SHRA VCTS OVC050CB
      TEMPO 2012/2015 4SM -SHRA BR OVC028
     FM201500 17008KT 6SM -SHRA OVC050
     FM201700 18009KT P6SM VCSH OVC070
     FM202000 18009KT 3SM -SHRA OVC035
     FM210000 17007KT 3SM -SHRA BR OVC015
     FM210200 31005KT P6SM OVC010=

USA.gov is the U.S. government's official web portal to all federal, state and local government web resources and services.